| time (UTC) | temp F | wind direction | speed knots | gust knots | rain 1hr in | rain 24hr in | rain mn in | humidity % | barometer mb |
| 20260509080050 | 52 | 217 | 2.6 | 6.1 | 0.00 | 0.00 | 0.00 | 82 | 1006.2 |
| 20260509074553 | 52 | 207 | 2.6 | 7.0 | 0.00 | 0.00 | 0.00 | 81 | 1006.3 |
| 20260509073052 | 52 | 231 | 3.5 | 8.7 | 0.00 | 0.00 | 0.00 | 79 | 1006.6 |
| 20260509071553 | 52 | 211 | 2.6 | 7.8 | 0.00 | 0.00 | 0.00 | 77 | 1006.9 |
| 20260509070054 | 52 | 233 | 2.6 | 6.1 | 0.00 | 0.00 | 0.00 | 74 | 1006.8 |
| 20260509064553 | 52 | 163 | 2.6 | 7.0 | 0.00 | 0.00 | 0.00 | 70 | 1006.9 |
| 20260509063052 | 52 | 172 | 3.5 | 8.7 | 0.00 | 0.00 | 0.00 | 64 | 1007.2 |
| 20260509061552 | 52 | 146 | 2.6 | 8.7 | 0.00 | 0.00 | 0.00 | 58 | 1007.3 |
| 20260509060106 | 53 | 226 | 3.5 | 7.0 | 0.00 | 0.00 | 0.00 | 52 | 1007.5 |
| 20260509054553 | 53 | 156 | 2.6 | 6.1 | 0.00 | 0.00 | 0.00 | 44 | 1007.5 |
| 20260509053112 | 52 | 199 | 2.6 | 6.1 | 0.00 | 0.00 | 0.00 | 40 | 1007.5 |
| 20260509051555 | 52 | 224 | 1.7 | 8.7 | 0.00 | 0.00 | 0.00 | 39 | 1007.6 |
| 20260509050053 | 52 | 181 | 2.6 | 5.2 | 0.00 | 0.00 | 0.00 | 39 | 1007.6 |
| 20260509044636 | 52 | 136 | 2.6 | 5.2 | 0.00 | 0.00 | 0.00 | 39 | 1007.8 |
| 20260509043132 | 53 | 172 | 2.6 | 5.2 | 0.00 | 0.00 | 0.00 | 37 | 1008.0 |
| 20260509041555 | 53 | 165 | 1.7 | 4.3 | 0.00 | 0.00 | 0.00 | 36 | 1007.9 |
| 20260509040054 | 52 | 165 | 0.9 | 2.6 | 0.00 | 0.00 | 0.00 | 37 | 1008.1 |
| 20260509034550 | 52 | 174 | 0.9 | 2.6 | 0.00 | 0.00 | 0.00 | 37 | 1008.1 |
| 20260509033049 | 53 | 165 | 0.9 | 2.6 | 0.00 | 0.00 | 0.00 | 36 | 1008.3 |
| 20260509031559 | 52 | 126 | 0.9 | 2.6 | 0.00 | 0.00 | 0.00 | 36 | 1008.4 |
| 20260509030109 | 52 | 0 | 0.0 | 2.6 | 0.00 | 0.00 | 0.00 | 37 | 1008.6 |
| 20260509024554 | 52 | 155 | 0.0 | 1.7 | 0.00 | 0.00 | 0.00 | 38 | 1008.8 |
| 20260509023057 | 49 | 143 | 0.0 | 0.9 | 0.00 | 0.00 | 0.00 | 41 | 1009.0 |
| 20260509021550 | 45 | 0 | 0.0 | 0.0 | 0.00 | 0.00 | 0.00 | 63 | 1009.0 |
| 20260509014555 | 46 | 0 | 0.0 | 0.0 | 0.00 | 0.00 | 0.00 | 60 | 1009.0 |
| 20260509013049 | 48 | 0 | 0.0 | 0.0 | 0.00 | 0.00 | 0.00 | 58 | 1009.0 |
| 20260509011558 | 52 | 0 | 0.0 | 0.0 | 0.00 | 0.00 | 0.00 | 50 | 1008.9 |
| 20260509010050 | 53 | 0 | 0.0 | 0.0 | 0.00 | 0.00 | 0.00 | 43 | 1008.9 |
| 20260509004556 | 57 | 0 | 0.0 | 0.0 | 0.00 | 0.00 | 0.00 | 40 | 1009.0 |
| 20260509003055 | 61 | 0 | 0.0 | 0.0 | 0.00 | 0.00 | 0.00 | 27 | 1009.1 |
| 20260509001550 | 62 | 0 | 0.0 | 2.6 | 0.00 | 0.00 | 0.00 | 26 | 1009.1 |
| 20260509000051 | 62 | 0 | 0.0 | 5.2 | 0.00 | 0.00 | 0.00 | 27 | 1009.4 |
| 20260508234551 | 62 | 304 | 0.9 | 7.0 | 0.00 | 0.00 | 0.00 | 28 | 1009.5 |
| 20260508233048 | 63 | 290 | 0.9 | 3.5 | 0.00 | 0.00 | 0.00 | 28 | 1009.5 |
| 20260508231551 | 63 | 311 | 2.6 | 6.1 | 0.00 | 0.00 | 0.00 | 27 | 1009.6 |
| 20260508230055 | 63 | 281 | 1.7 | 6.1 | 0.00 | 0.00 | 0.00 | 29 | 1009.8 |
| 20260508224620 | 63 | 0 | 2.6 | 7.0 | 0.00 | 0.00 | 0.00 | 30 | 1009.6 |
| 20260508223052 | 64 | 276 | 1.7 | 6.1 | 0.00 | 0.00 | 0.00 | 26 | 1009.7 |
| 20260508221552 | 64 | 30 | 0.9 | 7.0 | 0.00 | 0.00 | 0.00 | 30 | 1009.6 |
| 20260508220056 | 65 | 141 | 1.7 | 6.1 | 0.00 | 0.00 | 0.00 | 29 | 1009.6 |
| 20260508214551 | 64 | 306 | 1.7 | 6.1 | 0.00 | 0.00 | 0.00 | 30 | 1009.7 |
| 20260508213049 | 63 | 66 | 1.7 | 7.8 | 0.00 | 0.00 | 0.00 | 32 | 1009.7 |
| 20260508211553 | 64 | 148 | 0.9 | 7.8 | 0.00 | 0.00 | 0.00 | 32 | 1009.7 |
| 20260508210051 | 63 | 44 | 3.5 | 8.7 | 0.00 | 0.00 | 0.00 | 30 | 1009.9 |
| 20260508204553 | 63 | 262 | 2.6 | 7.8 | 0.00 | 0.00 | 0.00 | 26 | 1009.9 |
| 20260508203058 | 64 | 292 | 1.7 | 7.0 | 0.00 | 0.00 | 0.00 | 28 | 1010.0 |
| 20260508201558 | 65 | 297 | 0.9 | 7.8 | 0.00 | 0.00 | 0.00 | 28 | 1010.2 |
| 20260508200051 | 64 | 24 | 1.7 | 7.8 | 0.00 | 0.00 | 0.00 | 30 | 1010.3 |
| 20260508194548 | 64 | 155 | 0.9 | 7.8 | 0.00 | 0.00 | 0.00 | 33 | 1010.4 |
| 20260508193050 | 63 | 302 | 1.7 | 7.0 | 0.00 | 0.00 | 0.00 | 29 | 1010.6 |
| 20260508191551 | 63 | 293 | 1.7 | 6.1 | 0.00 | 0.00 | 0.00 | 30 | 1010.6 |
| 20260508190053 | 62 | 293 | 2.6 | 6.1 | 0.00 | 0.00 | 0.00 | 31 | 1010.8 |
| 20260508184550 | 63 | 311 | 1.7 | 8.7 | 0.00 | 0.00 | 0.00 | 29 | 1011.1 |
| 20260508183047 | 62 | 278 | 1.7 | 6.1 | 0.00 | 0.00 | 0.00 | 31 | 1011.0 |
| 20260508181548 | 62 | 323 | 2.6 | 8.7 | 0.00 | 0.00 | 0.00 | 31 | 1011.5 |
| 20260508180053 | 62 | 276 | 0.9 | 7.0 | 0.00 | 0.00 | 0.00 | 38 | 1011.4 |
| 20260508174556 | 61 | 51 | 1.7 | 7.8 | 0.00 | 0.00 | 0.00 | 34 | 1011.7 |
| 20260508173055 | 62 | 299 | 3.5 | 8.7 | 0.00 | 0.00 | 0.00 | 33 | 1011.9 |
| 20260508171548 | 62 | 294 | 1.7 | 6.1 | 0.00 | 0.00 | 0.00 | 35 | 1012.2 |
| 20260508170050 | 62 | 304 | 0.0 | 6.1 | 0.00 | 0.00 | 0.00 | 35 | 1012.3 |
| 20260508164555 | 60 | 269 | 0.9 | 5.2 | 0.00 | 0.00 | 0.00 | 36 | 1012.5 |
| 20260508163053 | 59 | 245 | 0.9 | 8.7 | 0.00 | 0.00 | 0.00 | 36 | 1012.9 |
| 20260508161557 | 59 | 289 | 1.7 | 6.1 | 0.00 | 0.00 | 0.00 | 47 | 1013.0 |
| 20260508160054 | 59 | 152 | 0.9 | 10.4 | 0.00 | 0.00 | 0.00 | 45 | 1013.1 |
| 20260508154609 | 58 | 259 | 2.6 | 7.0 | 0.00 | 0.00 | 0.00 | 43 | 1013.1 |
| 20260508153054 | 58 | 221 | 2.6 | 5.2 | 0.00 | 0.00 | 0.00 | 46 | 1013.1 |
| 20260508151555 | 57 | 235 | 0.0 | 5.2 | 0.00 | 0.00 | 0.00 | 50 | 1013.3 |
| 20260508144549 | 56 | 146 | 2.6 | 5.2 | 0.00 | 0.00 | 0.00 | 49 | 1013.4 |
| 20260508143106 | 55 | 298 | 0.9 | 4.3 | 0.00 | 0.00 | 0.00 | 53 | 1013.6 |
| 20260508141549 | 53 | 201 | 0.0 | 4.3 | 0.00 | 0.00 | 0.00 | 66 | 1013.7 |
| 20260508140106 | 52 | 236 | 1.7 | 3.5 | 0.00 | 0.00 | 0.00 | 67 | 1013.8 |
| 20260508134555 | 51 | 139 | 1.7 | 4.3 | 0.00 | 0.00 | 0.00 | 69 | 1013.7 |
| 20260508133106 | 50 | 167 | 0.9 | 3.5 | 0.00 | 0.00 | 0.00 | 72 | 1013.8 |
| 20260508131600 | 49 | 333 | 0.0 | 0.9 | 0.00 | 0.00 | 0.00 | 76 | 1013.8 |
| 20260508130050 | 47 | 0 | 0.0 | 0.9 | 0.00 | 0.00 | 0.00 | 80 | 1013.9 |
| 20260508124550 | 44 | 0 | 0.0 | 0.0 | 0.00 | 0.00 | 0.00 | 89 | 1014.0 |
| 20260508123052 | 41 | 0 | 0.0 | 0.0 | 0.00 | 0.00 | 0.00 | 93 | 1014.1 |
| 20260508121552 | 39 | 0 | 0.0 | 0.0 | 0.00 | 0.00 | 0.00 | 94 | 1013.9 |
| 20260508120049 | 37 | 0 | 0.0 | 2.6 | 0.00 | 0.00 | 0.00 | 93 | 1013.6 |
| 20260508114552 | 35 | 0 | 0.0 | 0.0 | 0.00 | 0.00 | 0.00 | 93 | 1013.6 |
| 20260508113055 | 34 | 0 | 0.0 | 0.0 | 0.00 | 0.00 | 0.00 | 93 | 1013.7 |
| 20260508111600 | 33 | 0 | 0.0 | 0.9 | 0.00 | 0.00 | 0.00 | 92 | 1013.6 |
| 20260508110057 | 32 | 0 | 0.0 | 0.0 | 0.00 | 0.00 | 0.00 | 92 | 1013.4 |
| 20260508104552 | 31 | 0 | 0.0 | 0.0 | 0.00 | 0.00 | 0.00 | 91 | 1013.3 |
| 20260508103054 | 31 | 0 | 0.0 | 0.0 | 0.00 | 0.00 | 0.00 | 90 | 1013.2 |
| 20260508101555 | 32 | 0 | 0.0 | 0.0 | 0.00 | 0.00 | 0.00 | 90 | 1013.2 |
| 20260508100050 | 32 | 0 | 0.0 | 0.0 | 0.00 | 0.00 | 0.00 | 90 | 1013.3 |
| 20260508094550 | 32 | 0 | 0.0 | 0.0 | 0.00 | 0.00 | 0.00 | 89 | 1013.4 |
| 20260508093049 | 33 | 0 | 0.0 | 0.0 | 0.00 | 0.00 | 0.00 | 89 | 1013.4 |
| 20260508091608 | 34 | 0 | 0.0 | 0.0 | 0.00 | 0.00 | 0.00 | 89 | 1013.4 |
| 20260508090053 | 34 | 0 | 0.0 | 0.0 | 0.00 | 0.00 | 0.00 | 88 | 1013.5 |
| 20260508084612 | 34 | 0 | 0.0 | 0.0 | 0.00 | 0.00 | 0.00 | 87 | 1013.6 |
| 20260508083103 | 35 | 0 | 0.0 | 0.0 | 0.00 | 0.00 | 0.00 | 85 | 1013.6 |
| 20260508081556 | 36 | 0 | 0.0 | 0.0 | 0.00 | 0.00 | 0.00 | 84 | 1013.6 |